createdAt,value
2017-03-13T00:05:26.912Z,25.47
2017-03-13T00:06:43.283Z,25.45
2017-03-13T00:07:18.552Z,25.42
2017-03-13T00:07:33.185Z,25.42
2017-03-13T00:09:46.138Z,25.33
2017-03-13T00:10:31.590Z,25.41
2017-03-13T00:11:17.084Z,25.27
2017-03-13T00:13:51.401Z,25.47
2017-03-13T00:15:07.854Z,25.56
2017-03-13T00:16:14.698Z,25.63
2017-03-13T00:17:31.561Z,25.69
2017-03-13T00:18:42.816Z,25.66
2017-03-13T00:19:28.329Z,25.74
2017-03-13T00:19:42.980Z,25.7
2017-03-13T00:20:28.550Z,25.7
2017-03-13T00:25:51.928Z,25.75
2017-03-13T00:28:12.168Z,25.69
2017-03-13T00:30:36.573Z,25.64
2017-03-13T00:31:22.154Z,25.62
2017-03-13T00:35:54.396Z,25.41
2017-03-13T00:38:12.591Z,25.2
2017-03-13T00:39:59.874Z,25.15
2017-03-13T00:41:16.312Z,25.17
2017-03-13T00:44:08.424Z,25.44
2017-03-13T00:47:19.806Z,25.54
2017-03-13T00:49:17.795Z,25.69
2017-03-13T00:51:05.126Z,25.64
2017-03-13T00:53:02.925Z,25.89
2017-03-13T00:53:52.116Z,25.91
2017-03-13T00:55:39.453Z,25.97
2017-03-13T00:56:50.617Z,25.99
2017-03-13T00:58:45.449Z,25.81
2017-03-13T01:00:49.685Z,25.78
2017-03-13T01:01:35.232Z,25.81
2017-03-13T01:01:49.749Z,25.76
2017-03-13T01:03:06.322Z,25.71
2017-03-13T01:05:24.519Z,25.63
2017-03-13T01:07:27.281Z,25.57
2017-03-13T01:07:42.077Z,25.67
2017-03-13T01:14:04.955Z,25.3
2017-03-13T01:15:42.105Z,25.27
2017-03-13T01:15:56.829Z,25.26
2017-03-13T01:19:11.443Z,25.22
2017-03-13T01:20:33.691Z,25.08
2017-03-13T01:21:19.343Z,25
2017-03-13T01:21:33.993Z,24.93
2017-03-13T01:22:27.750Z,24.8
2017-03-13T01:24:29.297Z,24.55
2017-03-13T01:41:35.280Z,24.74
2017-03-13T01:42:14.293Z,24.69
2017-03-13T01:42:59.801Z,24.69
2017-03-13T01:43:45.508Z,24.66
2017-03-13T01:44:00.145Z,24.71
2017-03-13T01:47:08.274Z,24.77
2017-03-13T01:49:20.697Z,24.75
2017-03-13T01:50:41.621Z,24.71
2017-03-13T01:53:01.324Z,24.66
2017-03-13T01:55:00.148Z,24.45
2017-03-13T01:55:47.683Z,24.39
2017-03-13T01:56:33.476Z,24.4
2017-03-13T01:57:23.894Z,24.39
2017-03-13T01:58:09.891Z,24.4
2017-03-13T02:00:30.947Z,24.29
2017-03-13T02:01:12.063Z,24.37
2017-03-13T02:02:23.329Z,24.36
2017-03-13T02:03:22.070Z,24.51
2017-03-13T02:19:51.261Z,25.27
2017-03-13T02:36:05.480Z,24.49
2017-03-13T02:36:51.027Z,24.52
2017-03-13T02:37:36.510Z,24.44
2017-03-13T02:37:53.612Z,24.34
2017-03-13T02:38:08.270Z,24.4
2017-03-13T02:38:22.919Z,24.36
2017-03-13T02:38:44.518Z,24.42
2017-03-13T02:39:30.111Z,24.27
2017-03-13T02:40:40.497Z,24.32
2017-03-13T02:40:55.161Z,24.3
2017-03-13T02:41:58.334Z,24.22
2017-03-13T02:42:12.945Z,24.33
2017-03-13T02:42:37.846Z,24.33
2017-03-13T02:58:23.672Z,23.93
2017-03-13T03:13:45.704Z,23.42
2017-03-13T03:14:00.302Z,23.45
2017-03-13T03:14:14.886Z,23.52
2017-03-13T03:14:29.753Z,23.42
2017-03-13T03:14:44.346Z,23.47
2017-03-13T03:15:02.040Z,23.38
2017-03-13T03:15:16.589Z,23.44
2017-03-13T03:15:56.871Z,23.41
2017-03-13T03:16:11.503Z,23.53
2017-03-13T03:16:26.445Z,23.4
2017-03-13T03:16:41.743Z,23.47
2017-03-13T03:16:56.388Z,23.48
2017-03-13T03:17:11.019Z,23.5
2017-03-13T03:17:25.710Z,23.53
2017-03-13T03:17:40.311Z,23.48
2017-03-13T03:17:55.009Z,23.48
2017-03-13T03:18:09.583Z,23.55
2017-03-13T03:18:25.439Z,23.47
2017-03-13T03:18:40.097Z,23.66
2017-03-13T03:18:54.749Z,23.55
2017-03-13T03:19:09.394Z,23.5
2017-03-13T03:19:24.023Z,23.63
2017-03-13T03:19:38.656Z,23.59
2017-03-13T03:19:53.302Z,23.57
2017-03-13T03:20:07.857Z,23.62
2017-03-13T03:20:22.405Z,23.6
2017-03-13T03:20:37.024Z,23.48
2017-03-13T03:20:52.740Z,23.55
2017-03-13T03:21:07.301Z,23.52
2017-03-13T03:21:21.888Z,23.6
2017-03-13T03:21:36.509Z,23.57
2017-03-13T03:21:51.205Z,23.53
2017-03-13T03:22:05.845Z,23.55
2017-03-13T03:22:20.491Z,23.57
2017-03-13T03:22:35.156Z,23.44
2017-03-13T03:22:49.744Z,23.47
2017-03-13T03:23:09.407Z,23.47
2017-03-13T03:23:24.069Z,23.45
2017-03-13T03:23:39.855Z,23.4
2017-03-13T03:23:54.488Z,23.45
2017-03-13T03:24:10.548Z,23.42
2017-03-13T03:24:25.385Z,23.45
2017-03-13T03:24:39.958Z,23.44
2017-03-13T03:24:54.596Z,23.45
2017-03-13T03:25:09.435Z,23.42
2017-03-13T03:25:23.980Z,23.55
2017-03-13T03:25:38.601Z,23.42
2017-03-13T03:25:53.180Z,23.4
2017-03-13T03:26:07.777Z,23.44
2017-03-13T03:26:22.390Z,23.38
2017-03-13T03:26:37.000Z,23.38
2017-03-13T03:26:51.627Z,23.38
2017-03-13T03:27:06.244Z,23.41
2017-03-13T03:27:20.923Z,23.37
2017-03-13T03:27:35.564Z,23.38
2017-03-13T03:27:50.304Z,23.44
2017-03-13T03:28:04.943Z,23.37
2017-03-13T03:28:19.564Z,23.42
2017-03-13T03:28:34.170Z,23.38
2017-03-13T03:28:49.423Z,23.47
2017-03-13T03:29:04.012Z,23.42
2017-03-13T03:29:18.651Z,23.55
2017-03-13T03:29:33.233Z,23.44
2017-03-13T03:29:47.804Z,23.4
2017-03-13T03:30:02.395Z,23.42
2017-03-13T03:30:16.963Z,23.37
2017-03-13T03:30:31.540Z,23.37
2017-03-13T03:30:46.198Z,23.32
2017-03-13T03:31:00.816Z,23.29
2017-03-13T03:31:15.415Z,23.32
2017-03-13T03:31:30.052Z,23.34
2017-03-13T03:31:44.685Z,23.25
2017-03-13T03:31:59.375Z,23.26
2017-03-13T03:32:13.978Z,23.34
2017-03-13T03:32:28.552Z,23.38
2017-03-13T03:32:43.169Z,23.37
2017-03-13T03:32:58.067Z,23.35
2017-03-13T03:33:12.668Z,23.37
2017-03-13T03:33:27.257Z,23.37
2017-03-13T03:33:41.893Z,23.35
2017-03-13T03:33:56.562Z,23.32
2017-03-13T03:34:11.187Z,23.28
2017-03-13T03:34:25.827Z,23.29
2017-03-13T03:34:40.482Z,23.29
2017-03-13T03:34:54.995Z,23.25
2017-03-13T03:35:09.595Z,23.28
2017-03-13T03:35:24.152Z,23.32
2017-03-13T03:35:38.737Z,23.29
2017-03-13T03:35:53.363Z,23.16
2017-03-13T03:36:08.059Z,23.25
2017-03-13T03:36:22.770Z,23.19
2017-03-13T03:36:37.456Z,23.18
2017-03-13T03:36:52.037Z,23.16
2017-03-13T03:37:06.604Z,23.18
2017-03-13T03:37:21.488Z,23.16
2017-03-13T03:37:36.118Z,23.21
2017-03-13T03:37:50.719Z,23.18
2017-03-13T03:38:05.270Z,23.24
2017-03-13T03:38:19.945Z,23.09
2017-03-13T03:38:34.558Z,23.21
2017-03-13T03:38:49.169Z,23.21
2017-03-13T03:39:03.724Z,23.18
2017-03-13T03:39:18.351Z,23.04
2017-03-13T03:39:32.972Z,23.12
2017-03-13T03:39:47.624Z,23.12
2017-03-13T03:40:02.211Z,23.21
2017-03-13T03:40:16.844Z,23.18
2017-03-13T03:40:31.426Z,23.19
2017-03-13T03:40:46.080Z,23.21
2017-03-13T03:41:00.673Z,23.21
2017-03-13T03:41:15.223Z,23.18
2017-03-13T03:41:29.827Z,23.16
2017-03-13T03:41:44.381Z,23.18
2017-03-13T03:41:59.014Z,23.21
2017-03-13T03:42:13.599Z,23.18
2017-03-13T03:42:28.162Z,23.16
2017-03-13T03:42:42.764Z,23.21
2017-03-13T03:42:57.397Z,23.15
2017-03-13T03:43:12.032Z,23.15
2017-03-13T03:43:26.633Z,23.21
2017-03-13T03:43:41.269Z,23.19
2017-03-13T03:43:56.086Z,23.16
2017-03-13T03:44:10.771Z,23.09
2017-03-13T03:44:25.380Z,23.12
2017-03-13T03:44:39.984Z,23.09
2017-03-13T03:44:54.596Z,23.12
2017-03-13T03:45:09.157Z,23.06
2017-03-13T03:45:23.792Z,23.09
2017-03-13T03:45:38.372Z,23.06
2017-03-13T03:45:52.964Z,23.1
2017-03-13T03:46:07.519Z,23.06
2017-03-13T03:46:22.162Z,23.06
2017-03-13T03:46:36.973Z,23.09
2017-03-13T03:46:51.596Z,23.16
2017-03-13T03:47:06.238Z,23.09
2017-03-13T03:47:20.839Z,23.03
2017-03-13T03:47:35.413Z,23.07
2017-03-13T03:47:50.038Z,23
2017-03-13T03:48:04.627Z,23.09
2017-03-13T03:48:19.146Z,23.1
2017-03-13T03:48:33.775Z,23.14
2017-03-13T03:48:48.410Z,23.19
2017-03-13T03:49:02.994Z,23.16
2017-03-13T03:49:17.614Z,23.14
2017-03-13T03:49:32.170Z,23.14
2017-03-13T03:49:46.804Z,23.19
2017-03-13T03:50:01.409Z,23.22
2017-03-13T03:50:16.012Z,23.18
2017-03-13T03:50:30.601Z,23.18
2017-03-13T03:50:45.232Z,23.09
2017-03-13T03:50:59.819Z,23.19
2017-03-13T03:51:14.392Z,23.18
2017-03-13T03:51:28.989Z,23.19
2017-03-13T03:51:43.619Z,23.19
2017-03-13T03:51:58.303Z,23.19
2017-03-13T03:52:12.811Z,23.16
2017-03-13T03:52:27.395Z,23.18
2017-03-13T03:52:41.994Z,23.15
2017-03-13T03:52:56.611Z,23.19
2017-03-13T03:53:11.205Z,23.19
2017-03-13T03:53:25.786Z,23.18
2017-03-13T03:53:40.461Z,23.16
2017-03-13T03:53:55.026Z,23.16
2017-03-13T03:54:09.653Z,23.12
2017-03-13T03:54:24.247Z,23.18
2017-03-13T03:54:38.860Z,23.21
2017-03-13T03:54:53.462Z,23.19
2017-03-13T03:55:08.100Z,23.16
2017-03-13T03:55:22.721Z,23.15
2017-03-13T03:55:37.274Z,23.07
2017-03-13T03:55:51.856Z,23.12
2017-03-13T03:56:06.473Z,23.12
2017-03-13T03:56:21.083Z,23.18
2017-03-13T03:56:35.710Z,23.18
2017-03-13T03:56:50.325Z,23.19
2017-03-13T03:57:04.951Z,23.14
2017-03-13T03:57:19.542Z,23.19
2017-03-13T03:57:34.146Z,23.18
2017-03-13T03:57:48.818Z,23.18
2017-03-13T03:58:03.413Z,23.07
2017-03-13T03:58:18.086Z,23.06
2017-03-13T03:58:32.778Z,23.06
2017-03-13T03:58:47.449Z,23.14
2017-03-13T03:59:02.041Z,23.16
2017-03-13T03:59:16.837Z,23.12
2017-03-13T03:59:31.421Z,23.1
2017-03-13T03:59:46.022Z,23.07
2017-03-13T04:00:00.625Z,23.07
2017-03-13T04:00:15.201Z,23.03
2017-03-13T04:00:29.816Z,23.1
2017-03-13T04:00:44.421Z,23.04
2017-03-13T04:00:58.988Z,23.04
2017-03-13T04:01:13.536Z,23.06
2017-03-13T04:01:28.141Z,23.06
2017-03-13T04:01:42.746Z,23.07
2017-03-13T04:01:57.326Z,23.07
2017-03-13T04:02:11.932Z,23.14
2017-03-13T04:02:26.535Z,23.1
2017-03-13T04:02:41.152Z,23.1
2017-03-13T04:02:55.761Z,23.12
2017-03-13T04:03:10.389Z,23.06
2017-03-13T04:03:24.996Z,23.15
2017-03-13T04:03:39.641Z,23.14
2017-03-13T04:03:54.254Z,23.1
2017-03-13T04:04:08.836Z,23.04
2017-03-13T04:04:23.442Z,23.1
2017-03-13T04:04:38.048Z,23.12
2017-03-13T04:04:52.643Z,23.07
2017-03-13T04:05:07.233Z,23.09
2017-03-13T04:05:21.808Z,23.09
2017-03-13T04:05:36.443Z,23.06
2017-03-13T04:05:51.053Z,23.04
2017-03-13T04:06:05.712Z,22.97
2017-03-13T04:06:20.339Z,23
2017-03-13T04:06:34.977Z,22.97
2017-03-13T04:06:49.566Z,23.03
2017-03-13T04:07:04.148Z,22.89
2017-03-13T04:07:18.731Z,22.86
2017-03-13T04:07:33.262Z,22.85
2017-03-13T04:07:47.876Z,22.92
2017-03-13T04:08:02.489Z,22.94
2017-03-13T04:08:17.060Z,22.86
2017-03-13T04:08:31.653Z,22.88
2017-03-13T04:08:46.294Z,22.94
2017-03-13T04:09:00.927Z,22.89
2017-03-13T04:09:15.554Z,22.92
2017-03-13T04:09:30.139Z,22.91
2017-03-13T04:09:44.734Z,22.82
2017-03-13T04:09:59.409Z,22.94
2017-03-13T04:10:13.952Z,22.96
2017-03-13T04:10:28.566Z,22.86
2017-03-13T04:10:43.208Z,23.01
2017-03-13T04:10:57.841Z,22.97
2017-03-13T04:11:12.389Z,22.92
2017-03-13T04:11:27.013Z,23.01
2017-03-13T04:11:41.611Z,22.96
2017-03-13T04:11:56.223Z,23.01
2017-03-13T04:12:10.861Z,23.03
2017-03-13T04:12:25.494Z,23.14
2017-03-13T04:12:40.141Z,23.09
2017-03-13T04:12:54.730Z,23.12
2017-03-13T04:13:09.292Z,23.06
2017-03-13T04:13:23.855Z,23.14
2017-03-13T04:13:38.502Z,23.04
2017-03-13T04:13:53.079Z,23.04
2017-03-13T04:14:07.693Z,23.12
2017-03-13T04:14:22.407Z,23.19
2017-03-13T04:14:37.108Z,23.18
2017-03-13T04:14:51.746Z,23.14
2017-03-13T04:15:06.350Z,23.22
2017-03-13T04:15:20.931Z,23.12
2017-03-13T04:15:35.537Z,23.21
2017-03-13T04:15:50.174Z,23.21
2017-03-13T04:16:04.814Z,23.28
2017-03-13T04:16:19.376Z,23.29
2017-03-13T04:16:33.924Z,23.26
2017-03-13T04:16:48.575Z,23.22
2017-03-13T04:17:03.204Z,23.22
2017-03-13T04:17:17.839Z,23.26
2017-03-13T04:17:32.520Z,23.25
2017-03-13T04:17:47.128Z,23.18
2017-03-13T04:18:01.721Z,23.28
2017-03-13T04:18:16.266Z,23.22
2017-03-13T04:18:30.821Z,23.28
2017-03-13T04:18:45.476Z,23.22
2017-03-13T04:19:00.073Z,23.28
2017-03-13T04:19:14.682Z,23.34
2017-03-13T04:19:29.236Z,23.26
2017-03-13T04:19:43.873Z,23.32
2017-03-13T04:19:58.468Z,23.4
2017-03-13T04:20:13.047Z,23.38
2017-03-13T04:20:27.698Z,23.35
2017-03-13T04:20:42.244Z,23.4
2017-03-13T04:20:56.817Z,23.41
2017-03-13T04:21:11.452Z,23.45
2017-03-13T04:21:26.042Z,23.45
2017-03-13T04:21:40.667Z,23.41
2017-03-13T04:21:55.249Z,23.53
2017-03-13T04:22:09.886Z,23.55
2017-03-13T04:22:24.438Z,23.59
2017-03-13T04:22:39.030Z,23.56
2017-03-13T04:22:53.668Z,23.63
2017-03-13T04:23:08.173Z,23.7
2017-03-13T04:23:22.761Z,23.62
2017-03-13T04:23:37.407Z,23.7
2017-03-13T04:23:52.013Z,23.72
2017-03-13T04:24:06.690Z,23.75
2017-03-13T04:24:21.297Z,23.74
2017-03-13T04:24:35.823Z,23.84
2017-03-13T04:24:50.432Z,23.87
2017-03-13T04:25:05.071Z,23.84
2017-03-13T04:25:19.681Z,23.74
2017-03-13T04:25:34.240Z,23.75
2017-03-13T04:25:49.325Z,23.84
2017-03-13T04:26:03.897Z,23.85
2017-03-13T04:26:18.488Z,23.81
2017-03-13T04:26:33.108Z,23.84
2017-03-13T04:26:47.719Z,23.75
2017-03-13T04:27:02.346Z,23.77
2017-03-13T04:27:16.953Z,23.77
2017-03-13T04:27:31.536Z,23.77
2017-03-13T04:27:46.100Z,23.71
2017-03-13T04:28:00.688Z,23.84
2017-03-13T04:28:15.242Z,23.84
2017-03-13T04:28:29.830Z,23.77
2017-03-13T04:28:44.465Z,23.77
2017-03-13T04:28:59.103Z,23.81
2017-03-13T04:29:13.693Z,23.79
2017-03-13T04:29:28.683Z,23.74
2017-03-13T04:29:43.294Z,23.7
2017-03-13T04:29:57.888Z,23.78
2017-03-13T04:30:12.482Z,23.71
2017-03-13T04:30:27.083Z,23.78
2017-03-13T04:30:41.702Z,23.66
2017-03-13T04:30:56.321Z,23.67
2017-03-13T04:31:10.932Z,23.55
2017-03-13T04:31:25.469Z,23.59
2017-03-13T04:31:40.023Z,23.4
2017-03-13T04:31:54.574Z,23.45
2017-03-13T04:32:09.216Z,23.41
2017-03-13T04:32:23.891Z,23.41
2017-03-13T04:32:38.507Z,23.37
2017-03-13T04:32:53.158Z,23.4
2017-03-13T04:33:07.758Z,23.32
2017-03-13T04:33:22.315Z,23.26
2017-03-13T04:33:36.885Z,23.25
2017-03-13T04:33:51.580Z,23.22
2017-03-13T04:34:06.142Z,23.22
2017-03-13T04:34:20.732Z,23.15
2017-03-13T04:34:35.350Z,23.12
2017-03-13T04:34:49.948Z,23.15
2017-03-13T04:35:04.547Z,23.03
2017-03-13T04:35:19.104Z,23.12
2017-03-13T04:35:33.670Z,23.12
2017-03-13T04:35:48.292Z,23.09
2017-03-13T04:36:02.878Z,23.07
2017-03-13T04:36:17.501Z,23.07
2017-03-13T04:36:32.150Z,23
2017-03-13T04:36:46.713Z,22.99
2017-03-13T04:37:01.330Z,23.14
2017-03-13T04:37:15.964Z,23.12
2017-03-13T04:37:30.550Z,23.04
2017-03-13T04:37:45.189Z,23.1
2017-03-13T04:37:59.784Z,23.19
2017-03-13T04:38:14.370Z,23.21
2017-03-13T04:38:28.968Z,23.18
2017-03-13T04:38:43.600Z,23.21
2017-03-13T04:38:58.222Z,23.32
2017-03-13T04:39:12.805Z,23.34
2017-03-13T04:39:27.368Z,23.34
2017-03-13T04:39:41.922Z,23.42
2017-03-13T04:39:56.499Z,23.55
2017-03-13T04:40:11.065Z,23.56
2017-03-13T04:40:25.702Z,23.6
2017-03-13T04:40:40.245Z,23.66
2017-03-13T04:40:54.853Z,23.63
2017-03-13T04:41:09.388Z,23.62
2017-03-13T04:41:23.936Z,23.7
2017-03-13T04:41:38.539Z,23.67
2017-03-13T04:41:53.097Z,23.66
2017-03-13T04:42:07.640Z,23.71
2017-03-13T04:42:22.257Z,23.77
2017-03-13T04:42:36.883Z,23.78
2017-03-13T04:42:51.484Z,23.72
2017-03-13T04:43:06.081Z,23.77
2017-03-13T04:43:20.686Z,23.72
2017-03-13T04:43:35.229Z,23.71
2017-03-13T04:43:49.897Z,23.64
2017-03-13T04:44:04.449Z,23.59
2017-03-13T04:44:19.017Z,23.64
2017-03-13T04:44:33.854Z,23.52
2017-03-13T04:44:48.510Z,23.56
2017-03-13T04:45:03.134Z,23.5
2017-03-13T04:45:17.792Z,23.44
2017-03-13T04:45:32.377Z,23.5
2017-03-13T04:45:46.996Z,23.38
2017-03-13T04:46:01.584Z,23.42
2017-03-13T04:46:16.129Z,23.41
2017-03-13T04:46:30.715Z,23.28
2017-03-13T04:46:45.518Z,23.28
2017-03-13T04:47:00.164Z,23.21
2017-03-13T04:47:14.763Z,23.15
2017-03-13T04:47:29.359Z,23.18
2017-03-13T04:47:43.957Z,23.07
2017-03-13T04:47:58.613Z,23.15
2017-03-13T04:48:13.424Z,23.15
2017-03-13T04:48:28.082Z,23.15
2017-03-13T04:48:42.677Z,23.04
2017-03-13T04:48:57.356Z,23.09
2017-03-13T04:49:11.947Z,23.1
2017-03-13T04:49:26.530Z,23.12
2017-03-13T04:49:41.134Z,23.03
2017-03-13T04:49:55.740Z,23.01
2017-03-13T04:50:10.597Z,23.03
2017-03-13T04:50:25.202Z,23.07
2017-03-13T04:50:39.885Z,23.09
2017-03-13T04:50:54.492Z,23.07
2017-03-13T04:51:09.043Z,23.03
2017-03-13T04:51:23.664Z,23.16
2017-03-13T04:51:38.276Z,23.14
2017-03-13T04:51:52.888Z,23.12
2017-03-13T04:52:07.466Z,23.18
2017-03-13T04:52:22.064Z,23.21
2017-03-13T04:52:36.638Z,23.12
2017-03-13T04:52:51.236Z,23.16
2017-03-13T04:53:05.902Z,23.16
2017-03-13T04:53:20.471Z,23.14
2017-03-13T04:53:35.086Z,23.22
2017-03-13T04:53:49.640Z,23.21
2017-03-13T04:54:04.222Z,23.18
2017-03-13T04:54:18.818Z,23.21
2017-03-13T04:54:33.414Z,23.09
2017-03-13T04:54:48.017Z,23.15
2017-03-13T04:55:02.613Z,23.21
2017-03-13T04:55:17.233Z,23.16
2017-03-13T04:55:31.876Z,23.15
2017-03-13T04:55:46.501Z,23.09
2017-03-13T04:56:01.106Z,23.19
2017-03-13T04:56:15.734Z,23.19
2017-03-13T04:56:30.391Z,23.18
2017-03-13T04:56:44.967Z,23.21
2017-03-13T04:56:59.551Z,23.12
2017-03-13T04:57:14.185Z,23.19
2017-03-13T04:57:28.754Z,23.15
2017-03-13T04:57:43.351Z,23.06
2017-03-13T04:57:57.973Z,23.21
2017-03-13T04:58:12.533Z,23.18
2017-03-13T04:58:27.151Z,23.15
2017-03-13T04:58:41.726Z,23.19
2017-03-13T04:58:56.319Z,23.24
2017-03-13T04:59:10.896Z,23.25
2017-03-13T04:59:25.523Z,23.29
2017-03-13T04:59:40.361Z,23.29
2017-03-13T04:59:54.949Z,23.35
2017-03-13T05:00:09.602Z,23.34
2017-03-13T05:00:24.207Z,23.32
2017-03-13T05:00:38.833Z,23.34
2017-03-13T05:00:53.465Z,23.38
2017-03-13T05:01:08.020Z,23.34
2017-03-13T05:01:22.566Z,23.35
2017-03-13T05:01:37.174Z,23.37
2017-03-13T05:01:51.788Z,23.34
2017-03-13T05:02:06.483Z,23.37
2017-03-13T05:02:21.064Z,23.35
2017-03-13T05:02:35.645Z,23.37
2017-03-13T05:02:50.212Z,23.35
2017-03-13T05:03:04.882Z,23.41
2017-03-13T05:03:19.474Z,23.29
2017-03-13T05:03:34.010Z,23.25
2017-03-13T05:03:48.610Z,23.34
2017-03-13T05:04:03.261Z,23.26
2017-03-13T05:04:17.849Z,23.26
2017-03-13T05:04:32.490Z,23.29
2017-03-13T05:04:47.119Z,23.24
2017-03-13T05:05:01.790Z,23.25
2017-03-13T05:05:16.400Z,23.24
2017-03-13T05:05:30.984Z,23.28
2017-03-13T05:05:45.625Z,23.21
2017-03-13T05:06:00.213Z,23.22
2017-03-13T05:06:14.823Z,23.21
2017-03-13T05:06:29.469Z,23.16
2017-03-13T05:06:44.039Z,23.1
2017-03-13T05:06:58.619Z,23.14
2017-03-13T05:07:13.225Z,23.09
2017-03-13T05:07:27.811Z,23.04
2017-03-13T05:07:42.390Z,23.1
2017-03-13T05:07:56.997Z,23.04
2017-03-13T05:08:11.564Z,23.09
2017-03-13T05:08:26.168Z,23.12
2017-03-13T05:08:40.741Z,23.12
2017-03-13T05:08:55.331Z,23
2017-03-13T05:09:09.946Z,23
2017-03-13T05:09:24.534Z,22.99
2017-03-13T05:09:39.090Z,22.97
2017-03-13T05:09:53.769Z,22.84
2017-03-13T05:10:08.365Z,22.91
2017-03-13T05:10:22.941Z,22.89
2017-03-13T05:10:37.531Z,22.94
2017-03-13T05:10:52.098Z,22.96
2017-03-13T05:11:06.694Z,22.92
2017-03-13T05:11:21.339Z,22.99
2017-03-13T05:11:35.947Z,22.82
2017-03-13T05:11:50.567Z,22.85
2017-03-13T05:12:05.219Z,22.81
2017-03-13T05:12:19.869Z,22.82
2017-03-13T05:12:34.482Z,22.88
2017-03-13T05:12:49.061Z,22.88
2017-03-13T05:13:03.662Z,22.82
2017-03-13T05:13:18.298Z,22.79
2017-03-13T05:13:32.874Z,22.82
2017-03-13T05:13:47.452Z,22.79
2017-03-13T05:14:02.094Z,22.84
2017-03-13T05:14:16.687Z,22.88
2017-03-13T05:14:31.333Z,22.78
2017-03-13T05:14:45.935Z,22.82
2017-03-13T05:15:00.724Z,22.84
2017-03-13T05:15:15.360Z,22.94
2017-03-13T05:15:29.974Z,22.86
2017-03-13T05:15:44.512Z,22.86
2017-03-13T05:15:59.118Z,22.82
2017-03-13T05:16:13.676Z,22.84
2017-03-13T05:16:28.343Z,22.86
2017-03-13T05:16:43.035Z,22.85
2017-03-13T05:16:57.618Z,22.85
2017-03-13T05:17:12.272Z,22.85
2017-03-13T05:17:26.860Z,22.85
2017-03-13T05:17:41.525Z,22.91
2017-03-13T05:17:56.126Z,22.84
2017-03-13T05:18:10.708Z,22.86
2017-03-13T05:18:25.291Z,22.84
2017-03-13T05:18:39.840Z,22.81
2017-03-13T05:18:54.480Z,22.96
2017-03-13T05:19:09.098Z,22.89
2017-03-13T05:19:23.681Z,22.91
2017-03-13T05:19:38.306Z,22.81
2017-03-13T05:19:53.340Z,22.89
2017-03-13T05:20:07.927Z,22.91
2017-03-13T05:20:22.523Z,22.82
2017-03-13T05:20:37.148Z,22.85
2017-03-13T05:20:51.787Z,22.84
2017-03-13T05:21:06.357Z,22.96
2017-03-13T05:21:20.978Z,22.86
2017-03-13T05:21:35.642Z,22.85
2017-03-13T05:21:50.285Z,22.88
2017-03-13T05:22:04.945Z,22.99
2017-03-13T05:22:19.568Z,22.91
2017-03-13T05:22:34.182Z,22.99
2017-03-13T05:22:48.828Z,22.86
2017-03-13T05:23:03.409Z,22.99
2017-03-13T05:23:17.998Z,22.92
2017-03-13T05:23:32.608Z,22.99
2017-03-13T05:23:47.210Z,23.01
2017-03-13T05:24:01.863Z,22.94
2017-03-13T05:24:16.450Z,22.84
2017-03-13T05:24:31.084Z,22.84
2017-03-13T05:24:45.706Z,22.88
2017-03-13T05:25:00.419Z,22.79
2017-03-13T05:25:15.106Z,22.79
2017-03-13T05:25:29.690Z,22.81
2017-03-13T05:25:44.332Z,22.88
2017-03-13T05:25:58.930Z,22.86
2017-03-13T05:26:13.489Z,22.86
2017-03-13T05:26:28.072Z,22.82
2017-03-13T05:26:42.724Z,22.81
2017-03-13T05:26:57.331Z,22.84
2017-03-13T05:27:11.950Z,22.79
2017-03-13T05:27:26.549Z,22.81
2017-03-13T05:27:41.152Z,22.81
2017-03-13T05:27:55.705Z,22.82
2017-03-13T05:28:10.306Z,22.71
2017-03-13T05:28:24.915Z,22.69
2017-03-13T05:28:39.485Z,22.69
2017-03-13T05:28:54.090Z,22.67
2017-03-13T05:29:08.934Z,22.7
2017-03-13T05:29:23.559Z,22.66
2017-03-13T05:29:38.225Z,22.66
2017-03-13T05:29:53.169Z,22.71
2017-03-13T05:30:07.748Z,22.73
2017-03-13T05:30:22.373Z,22.73
2017-03-13T05:30:36.963Z,22.67
2017-03-13T05:30:51.527Z,22.64
2017-03-13T05:31:06.131Z,22.67
2017-03-13T05:31:20.728Z,22.61
2017-03-13T05:31:35.405Z,22.63
2017-03-13T05:31:50.040Z,22.67
2017-03-13T05:32:04.633Z,22.64
2017-03-13T05:32:19.220Z,22.67
2017-03-13T05:32:33.839Z,22.61
2017-03-13T05:32:49.043Z,22.64
2017-03-13T05:33:03.676Z,22.67
2017-03-13T05:33:18.238Z,22.66
2017-03-13T05:33:32.815Z,22.64
2017-03-13T05:33:47.409Z,22.66
2017-03-13T05:34:02.020Z,22.69
2017-03-13T05:34:16.594Z,22.75
2017-03-13T05:34:31.195Z,22.71
2017-03-13T05:34:45.815Z,22.64
2017-03-13T05:35:00.420Z,22.64
2017-03-13T05:35:15.070Z,22.69
2017-03-13T05:35:29.699Z,22.71
2017-03-13T05:35:44.334Z,22.67
2017-03-13T05:35:58.974Z,22.69
2017-03-13T05:36:13.602Z,22.67
2017-03-13T05:36:28.185Z,22.64
2017-03-13T05:36:42.803Z,22.6
2017-03-13T05:36:57.375Z,22.54
2017-03-13T05:37:11.967Z,22.6
2017-03-13T05:37:26.556Z,22.59
2017-03-13T05:37:41.221Z,22.54
2017-03-13T05:37:55.882Z,22.54
2017-03-13T05:38:10.475Z,22.48
2017-03-13T05:38:25.103Z,22.52
2017-03-13T05:38:39.746Z,22.48
2017-03-13T05:38:54.378Z,22.54
2017-03-13T05:39:08.935Z,22.44
2017-03-13T05:39:23.501Z,22.42
2017-03-13T05:39:38.103Z,22.42
2017-03-13T05:39:52.728Z,22.44
2017-03-13T05:40:07.283Z,22.42
2017-03-13T05:40:21.950Z,22.3
2017-03-13T05:40:36.531Z,22.38
2017-03-13T05:40:51.147Z,22.34
2017-03-13T05:41:05.726Z,22.33
2017-03-13T05:41:20.272Z,22.39
2017-03-13T05:41:34.907Z,22.38
2017-03-13T05:41:49.541Z,22.29
2017-03-13T05:42:04.135Z,22.38
2017-03-13T05:42:18.768Z,22.45
2017-03-13T05:42:33.365Z,22.42
2017-03-13T05:42:48.056Z,22.45
2017-03-13T05:43:02.675Z,22.48
2017-03-13T05:43:17.289Z,22.49
2017-03-13T05:43:31.940Z,22.55
2017-03-13T05:43:46.623Z,22.49
2017-03-13T05:44:01.191Z,22.41
2017-03-13T05:44:15.838Z,22.45
2017-03-13T05:44:30.409Z,22.49
2017-03-13T05:44:45.012Z,22.45
2017-03-13T05:44:59.609Z,22.42
2017-03-13T05:45:14.415Z,22.44
2017-03-13T05:45:29.031Z,22.41
2017-03-13T05:45:43.631Z,22.29
2017-03-13T05:45:58.263Z,22.42
2017-03-13T05:46:12.884Z,22.29
2017-03-13T05:46:27.540Z,22.36
2017-03-13T05:46:42.153Z,22.33
2017-03-13T05:46:56.807Z,22.26
2017-03-13T05:47:11.399Z,22.38
2017-03-13T05:47:26.020Z,22.31
2017-03-13T05:47:40.590Z,22.33
2017-03-13T05:47:55.225Z,22.39
2017-03-13T05:48:10.070Z,22.3
2017-03-13T05:48:24.681Z,22.38
2017-03-13T05:48:39.297Z,22.36
2017-03-13T05:48:53.841Z,22.27
2017-03-13T05:49:08.497Z,22.3
2017-03-13T05:49:23.146Z,22.31
2017-03-13T05:49:37.741Z,22.31
2017-03-13T05:49:52.359Z,22.33
2017-03-13T05:50:06.944Z,22.34
2017-03-13T05:50:21.541Z,22.27
2017-03-13T05:50:36.173Z,22.31
2017-03-13T05:50:50.786Z,22.42
2017-03-13T05:51:05.472Z,22.33
2017-03-13T05:51:20.042Z,22.33
2017-03-13T05:51:34.646Z,22.38
2017-03-13T05:51:49.267Z,22.3
2017-03-13T05:52:03.890Z,22.31
2017-03-13T05:52:18.507Z,22.44
2017-03-13T05:52:33.144Z,22.42
2017-03-13T05:52:47.721Z,22.34
2017-03-13T05:53:02.374Z,22.41
2017-03-13T05:53:17.011Z,22.29
2017-03-13T05:53:31.578Z,22.29
2017-03-13T05:53:46.193Z,22.29
2017-03-13T05:54:00.817Z,22.38
2017-03-13T05:54:15.346Z,22.38
2017-03-13T05:54:29.962Z,22.38
2017-03-13T05:54:44.553Z,22.41
2017-03-13T05:54:59.174Z,22.36
2017-03-13T05:55:13.784Z,22.41
2017-03-13T05:55:28.388Z,22.42
2017-03-13T05:55:42.992Z,22.39
2017-03-13T05:55:57.559Z,22.42
2017-03-13T05:56:12.211Z,22.49
2017-03-13T05:56:26.781Z,22.46
2017-03-13T05:56:41.404Z,22.44
2017-03-13T05:56:55.949Z,22.45
2017-03-13T05:57:10.591Z,22.38
2017-03-13T05:57:25.218Z,22.33
2017-03-13T05:57:39.896Z,22.42
2017-03-13T05:57:54.538Z,22.38
2017-03-13T05:58:09.196Z,22.38
2017-03-13T05:58:23.811Z,22.39
2017-03-13T05:58:38.407Z,22.33
2017-03-13T05:58:53.069Z,22.3
2017-03-13T05:59:07.724Z,22.3
2017-03-13T05:59:22.373Z,22.34
2017-03-13T05:59:36.998Z,22.31
2017-03-13T05:59:51.592Z,22.42
2017-03-13T06:00:06.218Z,22.31
2017-03-13T06:00:21.060Z,22.3
2017-03-13T06:00:35.714Z,22.36
2017-03-13T06:00:50.363Z,22.33
2017-03-13T06:01:04.977Z,22.38
2017-03-13T06:01:19.539Z,22.33
2017-03-13T06:01:34.152Z,22.39
2017-03-13T06:01:48.797Z,22.41
2017-03-13T06:02:03.441Z,22.44
2017-03-13T06:02:18.061Z,22.31
2017-03-13T06:02:32.721Z,22.31
2017-03-13T06:02:47.330Z,22.42
2017-03-13T06:03:01.956Z,22.39
2017-03-13T06:03:16.546Z,22.51